Ackley, Iowa
Current Conditions -  °F | °C
As of 6:55 PM on Friday 24 Oct 2014 (Local Time) from KIFA Reporting Station
Haze Haze  
Wind Chill: 59°   Ceiling: Unl
Heat Index: 59°   Visibility: 2mi
Dew Point: 58°   Wind: 5mph
Humidity: 96%   Direction: 160°SSE
Pressure: 29.92"   Gusts: NA
Location:  42.55°N, 93.05°W
Report Text: KIFA 242355Z AUTO 16004KT 2SM BR CLR 15/14 A2992 RMK AO2 T01500143 10181 20150
Loading
Personal Weather Stations






























Interactive Weather Map
Tropical Storm Tracking
New forecast layout! Learn more

10-Day Weather Forecast

Advertisements
Track Severe Weather on mobile